Airfield :
LOGIN :

Register | Disclaimer

   EN    FR    IT 

 










Legend :    VFR   Marginal VFR   IFR   Intensive IFR   Very Intensive IFR
Visi :
Ceiling :
>= 8 km
>= 3000ft
5 to 8 km
1000 to 3000 ft
1500m to 5 km
500 to 1000 ft
800 to 1500m
200 to 500 ft
< 800m
< 200 ft
Symbols :   Thunderstorms  Fog  Heavy snow  Heavy precipitations  Wind > 20 kt
SIGMETs :     Misc.  Thunderstorms  Icing  Turbulence  Mountain Waves  Volcanic Ashes







- Airport Elevation : 257 ft
- IATA code : MAN
- Download approach charts


EGCC - Manchester

CURRENT METAR :
  • 190120Z AUTO 05006KT 9999 BKN030 05/02 Q1028 NOSIG

EXPIRED METARs :
  • 190050Z AUTO 02005KT 9999 BKN025 06/03 Q1028 NOSIG
  • 190020Z AUTO 01008KT 9999 BKN024 06/03 Q1028 NOSIG
  • 182350Z AUTO 02010KT 9999 SCT024 06/02 Q1029
  • 182320Z AUTO 33006KT 9999 NCD 06/02 Q1029 BECMG BKN020
  • 182250Z AUTO 33006KT 9999 NCD 06/01 Q1029 NOSIG

TAF TAF EGCC
Valid from the 19 at 00:00 until the 20 at 06:00 UTC


182302Z 1900/2006 33005KT 9999 SCT025
BECMG 1900/1903 08010KT
PROB30
TEMPO 1911/1921 7000 SHRA
TEMPO 1921/2006 7000 SHRA
PROB30
TEMPO 1921/2006 08015G25KT
ATIS : +44 161 499 2324
No reported NOTAMs for that airfield.



MET'MAP, your aeronautical weather chart ! - Copyright ORBIFLY December 2007 - Disclaimer

ORBIFLY MET'MAP TEAM :

Programming & Development : Alexandra Zaïnal
Concept & Development : Baudouin d'Aumeries
Co-Development & Prog : Marc-Olivier Méhu
Technical & hardware support : Manuel Goepfert

Contact : metmap@orbifly.com




SOURCES & CREDITS :

   NOAA